createdAt,value
2023-01-11T00:02:03.025Z,3.45
2023-01-11T00:04:30.333Z,4.55
2023-01-11T00:06:58.171Z,3.63
2023-01-11T00:09:25.458Z,5.55
2023-01-11T00:11:52.581Z,4.20
2023-01-11T00:14:19.531Z,3.67
2023-01-11T00:16:46.833Z,3.63
2023-01-11T00:19:13.865Z,5.28
2023-01-11T00:21:40.869Z,4.50
2023-01-11T00:24:07.959Z,3.63
2023-01-11T00:26:34.993Z,3.42
2023-01-11T00:29:01.936Z,3.67
2023-01-11T00:31:29.042Z,3.80
2023-01-11T00:33:56.095Z,3.60
2023-01-11T00:36:23.089Z,3.65
2023-01-11T00:38:55.329Z,3.42
2023-01-11T00:41:41.731Z,3.88
2023-01-11T00:44:30.925Z,3.95
2023-01-11T00:47:16.767Z,4.65
2023-01-11T00:49:44.334Z,4.03
2023-01-11T00:52:11.451Z,4.05
2023-01-11T00:54:40.431Z,3.70
2023-01-11T00:57:08.468Z,3.35
2023-01-11T00:59:37.079Z,3.42
2023-01-11T01:02:04.556Z,4.00
2023-01-11T01:04:32.169Z,3.80
2023-01-11T01:07:02.175Z,3.70
2023-01-11T01:09:29.439Z,3.80
2023-01-11T01:11:56.470Z,3.65
2023-01-11T01:14:28.531Z,3.80
2023-01-11T01:17:01.553Z,4.03
2023-01-11T01:19:30.835Z,5.20
2023-01-11T01:21:59.510Z,3.92
2023-01-11T01:24:30.974Z,4.53
2023-01-11T01:26:58.932Z,3.95
2023-01-11T01:29:26.215Z,4.25
2023-01-11T01:31:53.221Z,4.28
2023-01-11T01:34:20.198Z,5.60
2023-01-11T01:36:47.271Z,5.00
2023-01-11T01:39:14.515Z,4.05
2023-01-11T01:41:41.925Z,4.63
2023-01-11T01:45:08.232Z,5.32
2023-01-11T01:47:50.104Z,4.35
2023-01-11T01:50:26.976Z,4.60
2023-01-11T01:53:01.059Z,3.78
2023-01-11T01:55:35.719Z,4.10
2023-01-11T01:58:09.400Z,3.67
2023-01-11T02:00:40.326Z,4.28
2023-01-11T02:03:12.146Z,3.70
2023-01-11T02:05:39.431Z,4.20
2023-01-11T02:08:19.250Z,3.97
2023-01-11T02:10:46.929Z,4.13
2023-01-11T02:13:14.497Z,4.18
2023-01-11T02:15:41.621Z,4.03
2023-01-11T02:18:14.180Z,5.47
2023-01-11T02:21:08.037Z,5.10
2023-01-11T02:24:10.507Z,5.15
2023-01-11T02:27:21.922Z,3.83
2023-01-11T02:30:20.398Z,3.95
2023-01-11T02:33:17.019Z,4.93
2023-01-11T02:36:02.357Z,3.38
2023-01-11T02:38:55.547Z,4.53
2023-01-11T02:42:09.884Z,4.30
2023-01-11T02:45:01.419Z,4.00
2023-01-11T02:48:11.178Z,5.30
2023-01-11T02:51:06.417Z,5.40
2023-01-11T02:53:54.926Z,3.55
2023-01-11T02:56:28.225Z,3.08
2023-01-11T02:58:57.937Z,3.20
2023-01-11T03:01:25.608Z,4.28
2023-01-11T03:03:53.785Z,4.00
2023-01-11T03:06:32.419Z,4.47
2023-01-11T03:09:35.232Z,3.33
2023-01-11T03:12:45.912Z,4.05
2023-01-11T03:15:31.756Z,3.55
2023-01-11T03:18:19.324Z,3.08
2023-01-11T03:21:06.693Z,3.08
2023-01-11T03:23:51.997Z,3.75
2023-01-11T03:26:33.578Z,2.92
2023-01-11T03:29:18.912Z,4.90
2023-01-11T03:32:04.899Z,4.28
2023-01-11T03:34:38.420Z,3.15
2023-01-11T03:37:12.621Z,2.28
2023-01-11T03:40:32.727Z,2.83
2023-01-11T03:43:10.976Z,2.45
2023-01-11T03:45:52.974Z,2.78
2023-01-11T03:48:55.419Z,3.25
2023-01-11T03:51:28.086Z,2.60
2023-01-11T03:54:00.899Z,2.10
2023-01-11T03:56:40.207Z,2.10
2023-01-11T03:59:07.588Z,2.45
2023-01-11T04:01:35.351Z,1.98
2023-01-11T04:04:02.386Z,1.90
2023-01-11T04:06:30.314Z,1.70
2023-01-11T04:08:57.260Z,3.47
2023-01-11T04:11:24.302Z,1.88
2023-01-11T04:13:51.213Z,1.88
2023-01-11T04:16:18.298Z,2.05
2023-01-11T04:18:45.366Z,2.58
2023-01-11T04:21:12.416Z,2.63
2023-01-11T04:23:39.483Z,2.20
2023-01-11T04:26:07.000Z,1.55
2023-01-11T04:28:34.670Z,2.05
2023-01-11T04:31:01.838Z,2.22
2023-01-11T04:33:28.806Z,2.33
2023-01-11T04:35:55.935Z,4.40
2023-01-11T04:38:25.064Z,3.08
2023-01-11T04:41:12.014Z,3.00
2023-01-11T04:43:38.963Z,4.28
2023-01-11T04:46:06.863Z,3.45
2023-01-11T04:48:33.913Z,4.72
2023-01-11T04:51:00.848Z,3.67
2023-01-11T04:53:27.810Z,4.63
2023-01-11T04:55:54.758Z,6.30
2023-01-11T04:58:21.798Z,4.22
2023-01-11T05:00:48.820Z,6.95
2023-01-11T05:03:15.767Z,7.15
2023-01-11T05:05:42.743Z,9.68
2023-01-11T05:08:09.785Z,11.63
2023-01-11T05:10:36.844Z,11.73
2023-01-11T05:13:03.819Z,12.45
2023-01-11T05:15:30.971Z,12.23
2023-01-11T05:17:57.918Z,9.13
2023-01-11T05:20:24.923Z,16.98
2023-01-11T05:22:51.874Z,14.27
2023-01-11T05:25:18.929Z,20.70
2023-01-11T05:27:45.965Z,13.73
2023-01-11T05:30:15.451Z,16.92
2023-01-11T05:32:42.550Z,18.73
2023-01-11T05:35:11.169Z,22.08
2023-01-11T05:37:39.077Z,18.80
2023-01-11T05:40:07.343Z,19.35
2023-01-11T05:42:34.302Z,21.77
2023-01-11T05:45:19.907Z,22.88
2023-01-11T05:47:47.041Z,23.20
2023-01-11T05:50:14.037Z,24.90
2023-01-11T05:52:41.115Z,21.95
2023-01-11T05:55:08.657Z,22.77
2023-01-11T05:57:35.631Z,24.50
2023-01-11T06:00:04.087Z,20.67
2023-01-11T06:02:35.335Z,24.30
2023-01-11T06:05:02.860Z,25.38
2023-01-11T06:07:29.983Z,19.88
2023-01-11T06:09:56.989Z,19.58
2023-01-11T06:12:24.157Z,23.45
2023-01-11T06:14:51.165Z,21.75
2023-01-11T06:17:18.222Z,22.25
2023-01-11T06:19:45.285Z,23.20
2023-01-11T06:22:12.249Z,21.10
2023-01-11T06:24:39.224Z,20.38
2023-01-11T06:27:06.293Z,25.67
2023-01-11T06:29:33.281Z,21.85
2023-01-11T06:32:00.313Z,17.98
2023-01-11T06:34:27.323Z,26.20
2023-01-11T06:36:54.605Z,23.77
2023-01-11T06:39:21.623Z,23.52
2023-01-11T06:41:48.722Z,24.52
2023-01-11T06:44:15.736Z,22.10
2023-01-11T06:46:42.723Z,23.80
2023-01-11T06:49:11.618Z,23.48
2023-01-11T06:51:38.617Z,23.63
2023-01-11T06:54:05.824Z,28.13
2023-01-11T06:56:32.770Z,25.17
2023-01-11T06:58:59.873Z,27.42
2023-01-11T07:01:27.466Z,22.08
2023-01-11T07:03:54.554Z,25.52
2023-01-11T07:06:21.663Z,23.10
2023-01-11T07:08:48.712Z,21.10
2023-01-11T07:11:15.777Z,27.80
2023-01-11T07:13:42.832Z,25.58
2023-01-11T07:16:09.851Z,29.70
2023-01-11T07:18:37.318Z,32.38
2023-01-11T07:21:04.381Z,25.92
2023-01-11T07:23:31.478Z,29.05
2023-01-11T07:25:58.525Z,28.60
2023-01-11T07:28:28.312Z,34.33
2023-01-11T07:30:59.145Z,29.63
2023-01-11T07:33:27.492Z,33.25
2023-01-11T07:35:54.853Z,25.70
2023-01-11T07:38:22.712Z,24.95
2023-01-11T07:40:49.746Z,33.42
2023-01-11T07:43:19.049Z,31.35
2023-01-11T07:45:51.823Z,28.30
2023-01-11T07:48:26.158Z,26.60
2023-01-11T07:50:54.061Z,24.75
2023-01-11T07:53:22.011Z,30.67
2023-01-11T07:55:48.952Z,25.13
2023-01-11T07:58:15.998Z,27.67
2023-01-11T08:00:43.150Z,26.98
2023-01-11T08:03:10.568Z,23.95
2023-01-11T08:05:38.097Z,28.23
2023-01-11T08:08:06.020Z,30.60
2023-01-11T08:10:34.108Z,21.88
2023-01-11T08:13:19.896Z,21.67
2023-01-11T08:15:47.150Z,25.80
2023-01-11T08:18:14.299Z,19.73
2023-01-11T08:20:41.625Z,18.60
2023-01-11T08:23:10.353Z,19.40
2023-01-11T08:25:38.192Z,18.98
2023-01-11T08:28:07.546Z,15.85
2023-01-11T08:30:36.222Z,15.73
2023-01-11T08:33:06.824Z,17.33
2023-01-11T08:35:39.154Z,19.20
2023-01-11T08:38:06.878Z,17.90
2023-01-11T08:40:34.295Z,14.02
2023-01-11T08:43:01.349Z,14.43
2023-01-11T08:45:29.160Z,13.30
2023-01-11T08:47:56.339Z,17.63
2023-01-11T08:50:23.425Z,16.27
2023-01-11T08:52:51.643Z,17.88
2023-01-11T08:55:21.915Z,14.77
2023-01-11T08:57:49.145Z,16.83
2023-01-11T09:00:16.821Z,16.70
2023-01-11T09:02:45.698Z,17.35
2023-01-11T09:05:12.953Z,13.95
2023-01-11T09:07:40.249Z,19.25
2023-01-11T09:10:07.841Z,14.63
2023-01-11T09:12:35.028Z,15.15
2023-01-11T09:15:02.087Z,11.40
2023-01-11T09:17:29.238Z,12.40
2023-01-11T09:19:56.407Z,16.88
2023-01-11T09:22:23.832Z,16.27
2023-01-11T09:24:50.937Z,17.58
2023-01-11T09:27:19.011Z,19.38
2023-01-11T09:29:46.315Z,17.30
2023-01-11T09:32:13.513Z,20.95
2023-01-11T09:34:42.901Z,17.27
2023-01-11T09:37:10.035Z,23.10
2023-01-11T09:39:37.174Z,19.33
2023-01-11T09:42:22.392Z,14.15
2023-01-11T09:44:56.611Z,17.35
2023-01-11T09:47:32.120Z,19.63
2023-01-11T09:50:06.809Z,16.52
2023-01-11T09:52:39.956Z,19.48
2023-01-11T09:55:20.097Z,16.63
2023-01-11T09:58:28.512Z,18.40
2023-01-11T10:01:19.584Z,15.00
2023-01-11T10:04:15.983Z,13.80
2023-01-11T10:07:13.057Z,15.60
2023-01-11T10:18:22.821Z,19.02
2023-01-11T10:18:27.365Z,20.75
2023-01-11T10:20:27.770Z,14.40
2023-01-11T10:23:24.841Z,16.95
2023-01-11T10:28:43.168Z,21.02
2023-01-11T10:31:30.350Z,17.95
2023-01-11T10:34:03.747Z,20.30
2023-01-11T10:37:21.470Z,20.05
2023-01-11T10:41:01.815Z,17.88
2023-01-11T10:43:35.421Z,19.77
2023-01-11T10:46:13.265Z,16.67
2023-01-11T10:48:44.047Z,15.95
2023-01-11T10:51:35.552Z,16.52
2023-01-11T10:54:20.474Z,14.68
2023-01-11T10:57:09.072Z,22.67
2023-01-11T11:00:34.128Z,18.85
2023-01-11T11:03:13.246Z,23.20
2023-01-11T11:06:17.431Z,19.00
2023-01-11T11:09:45.836Z,15.70
2023-01-11T11:15:14.006Z,16.90
2023-01-11T11:17:46.964Z,16.83
2023-01-11T11:20:27.121Z,16.45
2023-01-11T11:22:56.574Z,19.88
2023-01-11T11:25:38.685Z,18.90
2023-01-11T11:28:24.506Z,21.27
2023-01-11T11:30:58.211Z,19.58
2023-01-11T11:33:39.667Z,18.92
2023-01-11T11:36:10.322Z,16.30
2023-01-11T11:38:41.334Z,16.25
2023-01-11T11:41:12.570Z,17.38
2023-01-11T11:43:45.954Z,18.05
2023-01-11T11:46:19.422Z,15.63
2023-01-11T11:49:15.925Z,17.67
2023-01-11T11:51:47.094Z,19.00
2023-01-11T11:54:49.419Z,17.33
2023-01-11T11:57:23.726Z,18.25
2023-01-11T12:00:06.875Z,17.30
2023-01-11T12:02:36.517Z,18.67
2023-01-11T12:05:10.635Z,15.07
2023-01-11T12:07:54.705Z,19.45
2023-01-11T12:10:30.605Z,15.30
2023-01-11T12:13:02.751Z,16.98
2023-01-11T12:15:34.840Z,15.40
2023-01-11T12:18:26.507Z,15.65
2023-01-11T12:20:54.769Z,14.32
2023-01-11T12:23:26.706Z,20.45
2023-01-11T12:26:09.226Z,15.18
2023-01-11T12:29:10.011Z,17.95
2023-01-11T12:31:56.138Z,17.17
2023-01-11T12:35:10.226Z,19.13
2023-01-11T12:37:59.959Z,19.38
2023-01-11T12:40:40.858Z,19.33
2023-01-11T12:43:33.048Z,17.52
2023-01-11T12:46:28.711Z,17.83
2023-01-11T12:49:59.500Z,20.42
2023-01-11T12:52:59.337Z,19.20
2023-01-11T12:55:29.016Z,19.73
2023-01-11T12:58:16.743Z,16.73
2023-01-11T13:01:12.754Z,20.52
2023-01-11T13:04:23.594Z,20.90
2023-01-11T13:07:12.251Z,17.42
2023-01-11T13:10:10.823Z,18.77
2023-01-11T13:12:46.985Z,14.70
2023-01-11T13:15:45.159Z,20.75
2023-01-11T13:18:23.358Z,18.75
2023-01-11T13:21:02.509Z,20.15
2023-01-11T13:23:40.529Z,16.35
2023-01-11T13:26:30.273Z,19.98
2023-01-11T13:29:13.522Z,19.27
2023-01-11T13:31:42.714Z,16.48
2023-01-11T13:34:35.945Z,19.42
2023-01-11T13:37:22.620Z,17.63
2023-01-11T13:40:01.877Z,21.42
2023-01-11T13:42:37.730Z,16.98
2023-01-11T13:45:16.010Z,21.00
2023-01-11T13:47:51.545Z,20.83
2023-01-11T13:50:23.833Z,16.45
2023-01-11T13:53:03.814Z,17.92
2023-01-11T13:55:54.496Z,22.08
2023-01-11T13:58:50.617Z,19.80
2023-01-11T14:01:38.180Z,18.50
2023-01-11T14:04:47.502Z,20.77
2023-01-11T14:07:45.587Z,17.20
2023-01-11T14:10:40.059Z,20.65
2023-01-11T14:13:59.702Z,16.45
2023-01-11T14:16:52.644Z,17.23
2023-01-11T14:20:33.683Z,17.88
2023-01-11T14:23:19.062Z,19.88
2023-01-11T14:26:36.364Z,17.23
2023-01-11T14:29:46.687Z,20.90
2023-01-11T14:33:02.664Z,20.13
2023-01-11T14:36:06.325Z,20.67
2023-01-11T14:39:04.767Z,18.45
2023-01-11T14:41:45.796Z,18.38
2023-01-11T14:44:54.924Z,21.33
2023-01-11T14:48:03.470Z,16.48
2023-01-11T14:51:33.736Z,15.40
2023-01-11T14:54:22.604Z,18.70
2023-01-11T14:56:58.079Z,16.90
2023-01-11T14:59:30.790Z,15.95
2023-01-11T15:02:03.950Z,21.70
2023-01-11T15:04:38.344Z,22.42
2023-01-11T15:07:36.497Z,19.55
2023-01-11T15:10:29.701Z,22.15
2023-01-11T15:12:58.328Z,19.77
2023-01-11T15:15:47.553Z,20.92
2023-01-11T15:18:24.908Z,19.58
2023-01-11T15:21:03.601Z,18.58
2023-01-11T15:23:48.467Z,14.55
2023-01-11T15:26:18.202Z,21.13
2023-01-11T15:28:50.980Z,22.65
2023-01-11T15:31:39.198Z,20.05
2023-01-11T15:34:21.980Z,22.20
2023-01-11T15:37:04.890Z,23.50
2023-01-11T15:39:56.083Z,22.15
2023-01-11T15:42:41.508Z,19.67
2023-01-11T15:45:23.228Z,19.02
2023-01-11T15:48:47.169Z,15.25
2023-01-11T15:52:04.819Z,19.75
2023-01-11T15:54:54.931Z,20.83
2023-01-11T15:58:05.458Z,20.27
2023-01-11T16:01:16.052Z,19.00
2023-01-11T16:04:00.492Z,17.00
2023-01-11T16:06:51.048Z,18.50
2023-01-11T16:09:56.729Z,21.08
2023-01-11T16:13:06.664Z,22.75
2023-01-11T16:15:56.728Z,19.02
2023-01-11T16:18:29.892Z,21.77
2023-01-11T16:21:05.075Z,16.42
2023-01-11T16:23:34.453Z,17.48
2023-01-11T16:26:02.479Z,19.55
2023-01-11T16:28:29.689Z,20.00
2023-01-11T16:31:01.108Z,17.92
2023-01-11T16:33:32.489Z,18.55
2023-01-11T16:36:20.976Z,17.85
2023-01-11T16:39:03.511Z,19.75
2023-01-11T16:42:05.700Z,21.20
2023-01-11T16:45:13.424Z,24.38
2023-01-11T16:47:40.815Z,20.65
2023-01-11T16:50:21.578Z,21.30
2023-01-11T16:52:52.390Z,20.40
2023-01-11T16:55:43.820Z,18.42
2023-01-11T16:58:29.441Z,19.60
2023-01-11T17:01:18.645Z,17.80
2023-01-11T17:03:54.818Z,18.85
2023-01-11T17:06:25.928Z,22.55
2023-01-11T17:08:56.776Z,22.63
2023-01-11T17:11:33.028Z,18.88
2023-01-11T17:14:21.576Z,18.98
2023-01-11T17:16:55.289Z,18.85
2023-01-11T17:19:27.359Z,17.58
2023-01-11T17:22:06.058Z,24.08
2023-01-11T17:24:57.142Z,16.70
2023-01-11T17:27:33.394Z,18.52
2023-01-11T17:30:02.086Z,19.08
2023-01-11T17:32:40.453Z,20.92
2023-01-11T17:35:20.164Z,20.73
2023-01-11T17:37:53.401Z,22.45
2023-01-11T17:40:33.255Z,20.48
2023-01-11T17:43:41.030Z,18.35
2023-01-11T17:46:17.074Z,16.48
2023-01-11T17:51:41.197Z,20.88
2023-01-11T17:54:22.493Z,23.17
2023-01-11T17:57:00.792Z,21.77
2023-01-11T17:59:30.211Z,21.23
2023-01-11T18:02:14.955Z,18.42
2023-01-11T18:04:43.212Z,20.63
2023-01-11T18:07:18.053Z,22.38
2023-01-11T18:10:00.912Z,18.27
2023-01-11T18:12:34.118Z,20.90
2023-01-11T18:15:05.234Z,19.55
2023-01-11T18:17:44.630Z,18.92
2023-01-11T18:20:15.043Z,19.35
2023-01-11T18:23:05.076Z,21.77
2023-01-11T18:25:35.015Z,20.33
2023-01-11T18:28:28.315Z,20.13
2023-01-11T18:31:01.843Z,23.17
2023-01-11T18:33:33.233Z,19.15
2023-01-11T18:36:03.629Z,18.85
2023-01-11T18:38:36.600Z,19.85
2023-01-11T18:41:26.808Z,18.70
2023-01-11T18:43:54.683Z,19.67
2023-01-11T18:46:21.986Z,20.02
2023-01-11T18:48:49.099Z,19.20
2023-01-11T18:51:27.148Z,19.52
2023-01-11T18:53:54.234Z,17.52
2023-01-11T18:56:22.283Z,18.15
2023-01-11T18:58:49.399Z,16.83
2023-01-11T19:01:16.867Z,15.15
2023-01-11T19:03:46.019Z,17.60
2023-01-11T19:06:13.706Z,21.85
2023-01-11T19:08:41.419Z,18.70
2023-01-11T19:11:08.630Z,19.77
2023-01-11T19:13:35.678Z,16.88
2023-01-11T19:16:02.800Z,19.08
2023-01-11T19:18:31.458Z,17.88
2023-01-11T19:21:03.494Z,16.40
2023-01-11T19:23:30.708Z,16.70
2023-01-11T19:25:59.908Z,17.30
2023-01-11T19:28:28.448Z,17.58
2023-01-11T19:30:55.639Z,16.33
2023-01-11T19:33:22.850Z,20.20
2023-01-11T19:35:50.098Z,19.90
2023-01-11T19:38:19.309Z,16.48
2023-01-11T19:40:50.247Z,17.70
2023-01-11T19:43:17.746Z,17.23
2023-01-11T19:45:44.886Z,15.25
2023-01-11T19:48:12.372Z,15.07
2023-01-11T19:50:39.549Z,16.67
2023-01-11T19:53:06.660Z,20.42
2023-01-11T19:55:33.700Z,15.43
2023-01-11T19:58:02.660Z,15.63
2023-01-11T20:00:30.019Z,17.67
2023-01-11T20:02:57.252Z,16.58
2023-01-11T20:05:24.440Z,18.10
2023-01-11T20:07:53.829Z,12.85
2023-01-11T20:10:20.903Z,14.40
2023-01-11T20:12:48.198Z,12.68
2023-01-11T20:15:15.360Z,12.77
2023-01-11T20:17:42.518Z,15.75
2023-01-11T20:20:10.907Z,14.63
2023-01-11T20:22:38.055Z,13.57
2023-01-11T20:25:05.970Z,11.52
2023-01-11T20:27:34.055Z,14.18
2023-01-11T20:30:01.133Z,14.38
2023-01-11T20:32:40.988Z,15.93
2023-01-11T20:35:09.439Z,14.43
2023-01-11T20:37:36.598Z,15.93
2023-01-11T20:40:04.249Z,15.35
2023-01-11T20:42:31.612Z,12.70
2023-01-11T20:44:58.775Z,15.65
2023-01-11T20:47:25.993Z,14.32
2023-01-11T20:49:53.120Z,18.17
2023-01-11T20:52:20.327Z,16.48
2023-01-11T20:54:47.451Z,17.95
2023-01-11T20:57:14.600Z,15.15
2023-01-11T20:59:41.790Z,16.85
2023-01-11T21:02:13.507Z,15.55
2023-01-11T21:04:40.721Z,15.25
2023-01-11T21:07:07.818Z,14.82
2023-01-11T21:09:35.030Z,15.25
2023-01-11T21:12:02.546Z,10.95
2023-01-11T21:14:30.494Z,15.43
2023-01-11T21:16:57.944Z,15.05
2023-01-11T21:19:25.726Z,14.88
2023-01-11T21:21:52.904Z,15.15
2023-01-11T21:24:20.927Z,17.05
2023-01-11T21:26:48.341Z,11.45
2023-01-11T21:29:15.847Z,12.35
2023-01-11T21:31:43.236Z,14.68
2023-01-11T21:34:12.273Z,14.07
2023-01-11T21:36:40.152Z,10.95
2023-01-11T21:39:07.384Z,13.05
2023-01-11T21:41:53.307Z,12.40
2023-01-11T21:44:22.303Z,9.90
2023-01-11T21:46:50.414Z,11.70
2023-01-11T21:49:17.795Z,10.65
2023-01-11T21:51:44.866Z,15.07
2023-01-11T21:54:14.843Z,11.15
2023-01-11T21:56:42.216Z,13.05
2023-01-11T21:59:09.731Z,14.93
2023-01-11T22:01:39.607Z,10.30
2023-01-11T22:04:12.435Z,12.32
2023-01-11T22:06:43.982Z,12.23
2023-01-11T22:09:12.143Z,12.88
2023-01-11T22:11:39.955Z,9.80
2023-01-11T22:14:08.596Z,11.48
2023-01-11T22:16:37.092Z,14.15
2023-01-11T22:19:09.223Z,12.88
2023-01-11T22:21:37.797Z,10.82
2023-01-11T22:24:08.872Z,11.48
2023-01-11T22:26:38.937Z,11.80
2023-01-11T22:29:17.282Z,11.98
2023-01-11T22:31:51.070Z,13.57
2023-01-11T22:34:18.966Z,16.25
2023-01-11T22:36:46.599Z,12.65
2023-01-11T22:39:16.038Z,12.65
2023-01-11T22:41:45.618Z,13.45
2023-01-11T22:44:13.488Z,13.38
2023-01-11T22:46:41.341Z,13.30
2023-01-11T22:49:08.470Z,11.93
2023-01-11T22:51:35.961Z,11.52
2023-01-11T22:54:04.478Z,15.40
2023-01-11T22:56:32.107Z,14.63
2023-01-11T22:58:59.548Z,13.52
2023-01-11T23:01:30.369Z,14.07
2023-01-11T23:03:58.318Z,15.10
2023-01-11T23:06:31.883Z,14.60
2023-01-11T23:08:59.873Z,14.63
2023-01-11T23:11:49.608Z,13.07
2023-01-11T23:14:20.571Z,18.90
2023-01-11T23:16:50.482Z,13.18
2023-01-11T23:19:20.206Z,14.30
2023-01-11T23:21:47.934Z,14.95
2023-01-11T23:24:16.413Z,18.20
2023-01-11T23:26:45.107Z,12.93
2023-01-11T23:29:12.818Z,14.48
2023-01-11T23:31:39.951Z,14.10
2023-01-11T23:34:08.436Z,14.43
2023-01-11T23:36:42.084Z,13.40
2023-01-11T23:39:15.751Z,13.57
2023-01-11T23:42:01.698Z,15.90
2023-01-11T23:44:29.116Z,13.40
2023-01-11T23:47:14.888Z,15.35
2023-01-11T23:49:43.526Z,17.73
2023-01-11T23:52:10.602Z,13.68
2023-01-11T23:54:37.780Z,14.90
2023-01-11T23:57:05.494Z,14.55
2023-01-11T23:59:32.896Z,12.05
